Peterson, AL (35478)

5:23 AM CDT on August 30, 2014 (GMT -0500)
Waverly | Change Station
CLOSE
Current Station
Personal Weather Station
Location: Tuscaloosa, AL
Elevation: 371 ft
Nearby Weather Stations

Elev 371 ft 33.26 °N, 87.49 °W | Updated 36 seconds ago

Overcast
Overcast
76.1 °F
Feels Like 76 °F
N
0.0
Wind Variable Wind from SW
Gusts 0.0 mph

Today
High -- | Low -- °F
--% Chance of Precip.
Yesterday
High -- | Low -- °F
Precip. -- in
6:22 AM 7:17 PM
Waxing Crescent, 21% visible
Pressure 30.05 in
Visibility 10.0 miles
Clouds Clear
Heat Index 76 °F
Dew Point 73 °F
Humidity 90%
Rainfall 0.00 in
Snow Depth Not available.
UV 0 out of 12
Pollen 9.50 out of 12
Ozone Good
PM2.5 Moderate
Flu Activity Not available.
METAR KTCL 300953Z AUTO 00000KT 10SM CLR 24/21 A3005 RMK AO2 SLP174 T02440211

More Conditions Fewer Conditions

Pressure 30.05 in
Visibility 10.0 miles
Clouds Clear
Heat Index 76 °F
Dew Point 73 °F
Humidity 90%
Rainfall 0.00 in
Snow Depth Not available.
UV 0 out of 12
Pollen 9.50 out of 12
Ozone Good
PM2.5 Moderate
Flu Activity Not available.
METAR KTCL 300953Z AUTO 00000KT 10SM CLR 24/21 A3005 RMK AO2 SLP174 T02440211

More Conditions Fewer Conditions

10-Day Weather Forecast

Almanac

Astronomy

Aug. 30, 2014 Rise Set
Actual Time 6:22 AM CDT 7:17 PM CDT
Civil Twilight 5:57 AM CDT 7:42 PM CDT
Nautical Twilight 5:27 AM CDT 8:12 PM CDT
Astronomical Twilight 4:56 AM CDT 8:43 PM CDT
Moon 10:53 AM CDT 10:08 PM CDT
Length of Visible Light 13h 45m
Length of Day
12h 54m
Tomorrow will be 1m 58s shorter.
Waxing Crescent, 21% of the Moon is Illuminated
Today
Waxing Crescent
Sep 2
First Quarter
Sep 8
Full
Sep 15
Last Quarter
Sep 24
New

Today's Extremes

State Highs State Lows

Community

WunderPhotos

Upload Photos

1,748,482 photos uploaded!

Nearby

Air Quality

  Air Quality AQ Index Pollutant
Yesterday Good
PM10
Yesterday Moderate
OZONE
Current Moderate
PM2.5
Current Good
OZONE
Saturday Moderate
PM2.5
Saturday Good
OZONE
Sunday Good
OZONE
Sunday Good
PM2.5
Monday Good
PM2.5
Monday Good
OZONE
Tuesday Good
OZONE

Snow Depth

Station Depth Elevation
No new snow has been reported.

Earthquake Activity

City Distance Mag. Time & Date
No recent earthquake activity has been reported nearby.
Minimum magnitude displayed is 2.5.

Coastal Water Temperatures

Place Temperature
No Stations Reporting

Nearby Weather Stations